East Northport, New York
Current Conditions -  °F | °C
As of 3:53 PM on Thursday 27 Nov 2014 (Local Time) from KFRG Reporting Station
Overcast Overcast  
Wind Chill: 34°   Ceiling: 2200
Heat Index: 39°   Visibility: 10mi
Dew Point: 30°   Wind: 7mph
Humidity: 70%   Direction: 340°NNW
Pressure: 29.99"   Gusts: NA
Location:  40.88°N, 73.31°W
Report Text: KFRG 272053Z 34006KT 10SM BKN022 BKN026 OVC041 04/M01 A2999 RMK AO2 SLP155 T00391011 53004
Loading
Personal Weather Stations






























Interactive Weather Map New forecast layout! Learn more

10-Day Weather Forecast

Advertisements
Track Severe Weather on mobile